Shepherd, Michigan
Current Conditions -  °F | °C
As of 10:55 AM on Sunday 23 Nov 2014 (Local Time) from KMOP Reporting Station
Overcast Overcast  
Wind Chill: 47°   Ceiling: 3100
Heat Index: 49°   Visibility: 10mi
Dew Point: 46°   Wind: 7mph
Humidity: 89%   Direction: 170°S
Pressure: 29.79"   Gusts: NA
Location:  43.52°N, 84.69°W
Report Text: KMOP 231555Z AUTO 17006KT 10SM OVC031 10/08 A2979 RMK AO2 T00970079
Loading
Personal Weather Stations






























Interactive Weather Map New forecast layout! Learn more

10-Day Weather Forecast

Advertisements
Track Severe Weather on mobile